Data Viewer
| City | State | Eastern Time | Source | Temp | DewPt | RH | BP | 5 Min Precip | Wind Speed | Wind Dir | 5 Min Wind Max | 5 Min Wind Max Dir |
|---|---|---|---|---|---|---|---|---|---|---|---|---|
| New York LGA | NY | 2026-05-05 05:20 | ASOS | 57 | 48 | 72 | 29.82 | 7 | S | |||
| New York LGA | NY | 2026-05-05 20:30 | ASOS | 64 | 52 | 64 | 29.81 | 10 | S | |||
| New York LGA | NY | 2026-05-05 19:20 | ASOS | 70 | 52 | 53 | 29.78 | 12 | S | |||
| New York LGA | NY | 2026-05-05 19:25 | ASOS | 70 | 52 | 53 | 29.78 | 14 | S | |||
| New York LGA | NY | 2026-05-05 19:51 | ASOS | 67 | 51 | 57 | 29.80 | 14 | S | |||
| New York LGA | NY | 2026-05-05 20:15 | ASOS | 66 | 52 | 60 | 29.80 | 9 | SSE | |||
| New York LGA | NY | 2026-05-05 20:20 | ASOS | 64 | 52 | 64 | 29.80 | 13 | SSE | |||
| New York LGA | NY | 2026-05-05 20:25 | ASOS | 64 | 52 | 64 | 29.80 | 12 | S | |||
| New York LGA | NY | 2026-05-05 20:35 | ASOS | 64 | 52 | 64 | 29.81 | 12 | S | |||
| New York LGA | NY | 2026-05-05 19:10 | ASOS | 70 | 52 | 53 | 29.78 | 12 | S | |||
| New York LGA | NY | 2026-05-05 20:51 | ASOS | 65 | 51 | 61 | 29.81 | 10 | S | |||
| New York LGA | NY | 2026-05-05 21:15 | ASOS | 66 | 52 | 60 | 29.82 | 10 | S | |||
| New York LGA | NY | 2026-05-05 21:20 | ASOS | 66 | 52 | 60 | 29.82 | 10 | S | |||
| New York LGA | NY | 2026-05-05 21:25 | ASOS | 66 | 52 | 60 | 29.82 | 9 | S | |||
| New York LGA | NY | 2026-05-05 21:40 | ASOS | 66 | 52 | 60 | 29.82 | 12 | S | |||
| New York LGA | NY | 2026-05-05 21:51 | ASOS | 67 | 51 | 57 | 29.83 | 13 | S | |||
| New York LGA | NY | 2026-05-05 19:15 | ASOS | 70 | 52 | 53 | 29.78 | 13 | S | |||
| New York LGA | NY | 2026-05-05 19:05 | ASOS | 70 | 52 | 53 | 29.77 | 14 | S | |||
| New York LGA | NY | 2026-05-05 22:20 | ASOS | 64 | 50 | 60 | 29.83 | 9 | S | |||
| New York LGA | NY | 2026-05-05 17:51 | ASOS | 75 | 52 | 45 | 29.75 | 13 | S | |||
| New York LGA | NY | 2026-05-05 17:10 | ASOS | 73 | 52 | 47 | 29.75 | 15 | SSE | |||
| New York LGA | NY | 2026-05-05 17:15 | ASOS | 73 | 52 | 47 | 29.75 | 13 | SSE | |||
| New York LGA | NY | 2026-05-05 17:20 | ASOS | 73 | 52 | 47 | 29.75 | 15 | SSE | |||
| New York LGA | NY | 2026-05-05 17:25 | ASOS | 73 | 52 | 47 | 29.75 | 13 | SSE | |||
| New York LGA | NY | 2026-05-05 17:35 | ASOS | 73 | 52 | 47 | 29.75 | 13 | S | |||
| New York LGA | NY | 2026-05-05 17:40 | ASOS | 73 | 52 | 47 | 29.75 | 13 | S | |||
| New York LGA | NY | 2026-05-05 18:00 | ASOS | 73 | 52 | 47 | 29.75 | 16 | S | |||
| New York LGA | NY | 2026-05-05 18:51 | ASOS | 71 | 52 | 51 | 29.77 | 16 | S | |||
| New York LGA | NY | 2026-05-05 18:05 | ASOS | 73 | 52 | 47 | 29.75 | 14 | S | |||
| New York LGA | NY | 2026-05-05 18:10 | ASOS | 73 | 52 | 47 | 29.75 | 14 | S | |||
| New York LGA | NY | 2026-05-05 18:15 | ASOS | 73 | 52 | 47 | 29.75 | 14 | S | |||
| New York LGA | NY | 2026-05-05 18:20 | ASOS | 73 | 52 | 47 | 29.76 | 15 | S | |||
| New York LGA | NY | 2026-05-05 18:25 | ASOS | 73 | 52 | 47 | 29.76 | 17 | S | |||
| New York LGA | NY | 2026-05-05 18:30 | ASOS | 73 | 52 | 47 | 29.76 | 14 | S | |||
| New York LGA | NY | 2026-05-05 18:35 | ASOS | 73 | 52 | 47 | 29.76 | 17 | S | |||
| New York LGA | NY | 2026-05-05 22:15 | ASOS | 64 | 50 | 60 | 29.83 | 10 | S | |||
| New York LGA | NY | 2026-05-05 22:25 | ASOS | 66 | 50 | 56 | 29.83 | 12 | S | |||
| New York LGA | NY | 2026-05-05 17:00 | ASOS | 73 | 52 | 47 | 29.75 | 13 | SSE | |||
| New York LGA | NY | 2026-05-06 03:30 | ASOS | 57 | 52 | 82 | 29.82 | 10 | S | |||
| New York LGA | NY | 2026-05-06 02:25 | ASOS | 59 | 52 | 77 | 29.82 | 13 | S | |||
| New York LGA | NY | 2026-05-06 02:30 | ASOS | 57 | 52 | 82 | 29.83 | 10 | S | |||
| New York LGA | NY | 2026-05-06 02:35 | ASOS | 57 | 52 | 82 | 29.83 | 9 | S | |||
| New York LGA | NY | 2026-05-06 02:51 | ASOS | 58 | 52 | 81 | 29.82 | 9 | S | |||
| New York LGA | NY | 2026-05-06 03:20 | ASOS | 57 | 52 | 82 | 29.82 | 9 | S | |||
| New York LGA | NY | 2026-05-06 03:25 | ASOS | 57 | 52 | 82 | 29.82 | 9 | S | |||
| New York LGA | NY | 2026-05-06 03:35 | ASOS | 57 | 52 | 82 | 29.82 | 10 | S | |||
| New York LGA | NY | 2026-05-06 02:15 | ASOS | 59 | 52 | 77 | 29.82 | 14 | SSE | |||
| New York LGA | NY | 2026-05-06 03:51 | ASOS | 58 | 52 | 81 | 29.82 | 10 | S | |||
| New York LGA | NY | 2026-05-06 04:15 | ASOS | 57 | 52 | 82 | 29.82 | 10 | S | |||
| New York LGA | NY | 2026-05-06 04:20 | ASOS | 57 | 52 | 82 | 29.82 | 10 | S | |||
| New York LGA | NY | 2026-05-06 04:25 | ASOS | 57 | 52 | 82 | 29.82 | 12 | S | |||
| New York LGA | NY | 2026-05-06 04:30 | ASOS | 57 | 52 | 82 | 29.82 | 10 | S | |||
| New York LGA | NY | 2026-05-06 04:35 | ASOS | 57 | 52 | 82 | 29.82 | 9 | S | |||
| New York LGA | NY | 2026-05-06 02:20 | ASOS | 59 | 52 | 77 | 29.82 | 14 | S | |||
| New York LGA | NY | 2026-05-06 01:51 | ASOS | 59 | 51 | 75 | 29.82 | 13 | S | |||
| New York LGA | NY | 2026-05-05 22:30 | ASOS | 66 | 52 | 60 | 29.83 | 10 | S | |||
| New York LGA | NY | 2026-05-05 23:35 | ASOS | 66 | 52 | 60 | 29.83 | 12 | S | |||
| New York LGA | NY | 2026-05-05 22:35 | ASOS | 66 | 50 | 56 | 29.83 | 10 | S | |||
| New York LGA | NY | 2026-05-05 22:51 | ASOS | 66 | 51 | 59 | 29.83 | 10 | S | |||
| New York LGA | NY | 2026-05-05 23:15 | ASOS | 66 | 52 | 60 | 29.83 | 10 | S | |||
| New York LGA | NY | 2026-05-05 23:20 | ASOS | 66 | 52 | 60 | 29.83 | 9 | S | |||
| New York LGA | NY | 2026-05-05 23:25 | ASOS | 66 | 52 | 60 | 29.83 | 10 | S | |||
| New York LGA | NY | 2026-05-05 23:30 | ASOS | 66 | 52 | 60 | 29.83 | 12 | S | |||
| New York LGA | NY | 2026-05-05 23:51 | ASOS | 67 | 52 | 59 | 29.83 | 13 | S | |||
| New York LGA | NY | 2026-05-06 01:35 | ASOS | 59 | 52 | 77 | 29.83 | 13 | S | |||
| New York LGA | NY | 2026-05-06 00:20 | ASOS | 63 | 52 | 68 | 29.84 | 10 | S | |||
| New York LGA | NY | 2026-05-06 00:25 | ASOS | 63 | 52 | 68 | 29.83 | 12 | SSE | |||
| New York LGA | NY | 2026-05-06 00:30 | ASOS | 63 | 52 | 68 | 29.84 | 10 | S | |||
| New York LGA | NY | 2026-05-06 00:51 | ASOS | 61 | 51 | 70 | 29.84 | 10 | S | |||
| New York LGA | NY | 2026-05-06 01:20 | ASOS | 61 | 52 | 72 | 29.83 | 10 | S | |||
| New York LGA | NY | 2026-05-06 01:25 | ASOS | 59 | 52 | 77 | 29.83 | 10 | S | |||
| New York LGA | NY | 2026-05-06 01:30 | ASOS | 59 | 52 | 77 | 29.83 | 12 | SSE | |||
| New York LGA | NY | 2026-05-05 17:05 | ASOS | 73 | 52 | 47 | 29.75 | 12 | S | |||
| New York LGA | NY | 2026-05-05 16:51 | ASOS | 73 | 52 | 48 | 29.75 | 16 | SSE | |||
| New York LGA | NY | 2026-05-05 05:25 | ASOS | 57 | 48 | 72 | 29.83 | 6 | S | |||
| New York LGA | NY | 2026-05-05 09:20 | ASOS | 70 | 48 | 46 | 29.85 | 14 | SSW | |||
| New York LGA | NY | 2026-05-05 08:20 | ASOS | 66 | 48 | 52 | 29.84 | 10 | SW | |||
| New York LGA | NY | 2026-05-05 08:25 | ASOS | 66 | 48 | 52 | 29.85 | 10 | SW | |||
| New York LGA | NY | 2026-05-05 08:30 | ASOS | 66 | 48 | 52 | 29.85 | 13 | SW | |||
| New York LGA | NY | 2026-05-05 08:35 | ASOS | 66 | 48 | 52 | 29.85 | 13 | SW | |||
| New York LGA | NY | 2026-05-05 08:51 | ASOS | 68 | 49 | 50 | 29.84 | 13 | SW | |||
| New York LGA | NY | 2026-05-05 09:15 | ASOS | 70 | 48 | 46 | 29.85 | 12 | SW | |||
| New York LGA | NY | 2026-05-05 09:25 | ASOS | 70 | 48 | 46 | 29.85 | 12 | SW | |||
| New York LGA | NY | 2026-05-05 07:51 | ASOS | 64 | 49 | 58 | 29.84 | 7 | SSW | |||
| New York LGA | NY | 2026-05-05 09:30 | ASOS | 70 | 50 | 49 | 29.85 | 9 | SSW | |||
| New York LGA | NY | 2026-05-05 09:35 | ASOS | 70 | 50 | 49 | 29.85 | 14 | SSW | |||
| New York LGA | NY | 2026-05-05 09:51 | ASOS | 70 | 50 | 49 | 29.85 | 10 | SSW | |||
| New York LGA | NY | 2026-05-05 10:15 | ASOS | 72 | 50 | 47 | 29.86 | 12 | SW | |||
| New York LGA | NY | 2026-05-05 10:20 | ASOS | 72 | 50 | 47 | 29.86 | 10 | SSW | |||
| New York LGA | NY | 2026-05-05 10:25 | ASOS | 72 | 50 | 47 | 29.86 | 10 | SSW | |||
| New York LGA | NY | 2026-05-05 08:15 | ASOS | 66 | 48 | 52 | 29.84 | 12 | SW | |||
| New York LGA | NY | 2026-05-05 07:40 | ASOS | 64 | 48 | 56 | 29.85 | 6 | SSW | |||
| New York LGA | NY | 2026-05-05 10:35 | ASOS | 72 | 50 | 47 | 29.85 | 12 | SSW | |||
| New York LGA | NY | 2026-05-05 06:20 | ASOS | 57 | 50 | 77 | 29.85 | 9 | S | |||
| New York LGA | NY | 2026-05-05 05:30 | ASOS | 55 | 48 | 77 | 29.82 | 6 | S | |||
| New York LGA | NY | 2026-05-05 05:35 | ASOS | 55 | 48 | 77 | 29.82 | 7 | S | |||
| New York LGA | NY | 2026-05-05 06:00 | ASOS | 57 | 50 | 77 | 29.83 | 8 | S | |||
| New York LGA | NY | 2026-05-05 06:05 | ASOS | 57 | 50 | 77 | 29.84 | 7 | S | |||
| New York LGA | NY | 2026-05-05 06:10 | ASOS | 57 | 50 | 77 | 29.84 | 7 | SSW | |||
| New York LGA | NY | 2026-05-05 06:15 | ASOS | 57 | 50 | 77 | 29.85 | 7 | SSW | |||
| New York LGA | NY | 2026-05-05 06:25 | ASOS | 57 | 50 | 77 | 29.85 | 8 | S | |||
| New York LGA | NY | 2026-05-05 07:35 | ASOS | 63 | 48 | 59 | 29.85 | 7 | SSW | |||
| New York LGA | NY | 2026-05-05 06:30 | ASOS | 57 | 50 | 77 | 29.85 | 9 | S | |||
| New York LGA | NY | 2026-05-05 06:35 | ASOS | 59 | 48 | 67 | 29.85 | 6 | S | |||
| New York LGA | NY | 2026-05-05 06:51 | ASOS | 61 | 49 | 65 | 29.85 | 8 | SW | |||
| New York LGA | NY | 2026-05-05 07:15 | ASOS | 63 | 48 | 59 | 29.85 | 8 | SSW | |||
| New York LGA | NY | 2026-05-05 07:20 | ASOS | 63 | 48 | 59 | 29.85 | 7 | SSW | |||
| New York LGA | NY | 2026-05-05 07:25 | ASOS | 63 | 48 | 59 | 29.85 | 6 | SSW | |||
| New York LGA | NY | 2026-05-05 07:30 | ASOS | 63 | 48 | 59 | 29.85 | 9 | SSW | |||
| New York LGA | NY | 2026-05-05 10:30 | ASOS | 72 | 50 | 47 | 29.86 | 12 | S | |||
| New York LGA | NY | 2026-05-05 10:51 | ASOS | 73 | 50 | 44 | 29.85 | 12 | SW | |||
| New York LGA | NY | 2026-05-05 16:35 | ASOS | 73 | 52 | 47 | 29.75 | 14 | SSE | |||
| New York LGA | NY | 2026-05-05 15:25 | ASOS | 75 | 54 | 47 | 29.77 | 17 | SSE | |||
| New York LGA | NY | 2026-05-05 14:30 | ASOS | 72 | 54 | 53 | 29.80 | 17 | SSE | |||
| New York LGA | NY | 2026-05-05 14:35 | ASOS | 73 | 54 | 50 | 29.80 | 20 | SSE | |||
| New York LGA | NY | 2026-05-05 14:40 | ASOS | 73 | 54 | 50 | 29.80 | 18 | S | |||
| New York LGA | NY | 2026-05-05 14:51 | ASOS | 73 | 53 | 50 | 29.79 | 18 | SSE | |||
| New York LGA | NY | 2026-05-05 15:15 | ASOS | 75 | 54 | 47 | 29.78 | 17 | SSE | |||
| New York LGA | NY | 2026-05-05 15:20 | ASOS | 75 | 54 | 47 | 29.77 | 16 | S | |||
| New York LGA | NY | 2026-05-05 15:30 | ASOS | 75 | 54 | 47 | 29.77 | 15 | S | |||
| New York LGA | NY | 2026-05-05 14:20 | ASOS | 73 | 54 | 50 | 29.80 | 16 | SSE | |||
| New York LGA | NY | 2026-05-05 15:35 | ASOS | 75 | 54 | 47 | 29.76 | 17 | SSE | |||
| New York LGA | NY | 2026-05-05 15:51 | ASOS | 75 | 53 | 46 | 29.75 | 17 | SSE | |||
| New York LGA | NY | 2026-05-05 16:10 | ASOS | 73 | 54 | 50 | 29.75 | 17 | SSE | |||
| New York LGA | NY | 2026-05-05 16:15 | ASOS | 73 | 54 | 50 | 29.75 | 17 | SSE | |||
| New York LGA | NY | 2026-05-05 16:20 | ASOS | 73 | 54 | 50 | 29.75 | 16 | SSE | |||
| New York LGA | NY | 2026-05-05 16:25 | ASOS | 73 | 52 | 47 | 29.75 | 16 | SSE | |||
| New York LGA | NY | 2026-05-05 16:30 | ASOS | 73 | 52 | 47 | 29.75 | 15 | S | |||
| New York LGA | NY | 2026-05-05 14:25 | ASOS | 72 | 54 | 53 | 29.80 | 17 | S | |||
| New York LGA | NY | 2026-05-05 14:15 | ASOS | 73 | 54 | 50 | 29.80 | 13 | SSE | |||
| New York LGA | NY | 2026-05-05 11:15 | ASOS | 73 | 52 | 47 | 29.84 | 10 | SSE | |||
| New York LGA | NY | 2026-05-05 12:20 | ASOS | 75 | 52 | 44 | 29.83 | 12 | S | |||
| New York LGA | NY | 2026-05-05 11:20 | ASOS | 73 | 52 | 47 | 29.84 | 9 | SSW | |||
| New York LGA | NY | 2026-05-05 11:25 | ASOS | 75 | 52 | 44 | 29.84 | 12 | SSE | |||
| New York LGA | NY | 2026-05-05 11:30 | ASOS | 73 | 52 | 47 | 29.84 | 10 | SSE | |||
| New York LGA | NY | 2026-05-05 11:35 | ASOS | 73 | 52 | 47 | 29.83 | 8 | SSE | |||
| New York LGA | NY | 2026-05-05 11:51 | ASOS | 74 | 53 | 48 | 29.84 | 15 | SSE | |||
| New York LGA | NY | 2026-05-05 12:15 | ASOS | 75 | 52 | 44 | 29.83 | 14 | S | |||
| New York LGA | NY | 2026-05-05 12:25 | ASOS | 75 | 52 | 44 | 29.82 | 10 | S | |||
| New York LGA | NY | 2026-05-05 13:51 | ASOS | 73 | 53 | 50 | 29.80 | 14 | SSE | |||
| New York LGA | NY | 2026-05-05 12:35 | ASOS | 75 | 52 | 44 | 29.82 | 13 | S | |||
| New York LGA | NY | 2026-05-05 12:51 | ASOS | 76 | 52 | 43 | 29.81 | 12 | S | |||
| New York LGA | NY | 2026-05-05 13:15 | ASOS | 75 | 54 | 47 | 29.81 | 13 | S | |||
| New York LGA | NY | 2026-05-05 13:20 | ASOS | 75 | 54 | 47 | 29.81 | 12 | SSE | |||
| New York LGA | NY | 2026-05-05 13:25 | ASOS | 75 | 54 | 47 | 29.81 | 16 | SSE | |||
| New York LGA | NY | 2026-05-05 13:30 | ASOS | 73 | 54 | 50 | 29.81 | 14 | S | |||
| New York LGA | NY | 2026-05-05 13:35 | ASOS | 73 | 54 | 50 | 29.81 | 17 | S | |||
| New York LGA | NY | 2026-05-06 04:51 | ASOS | 58 | 52 | 81 | 29.82 | 9 | S |
data collection created in 0.024247169494629 (queried in 0.006640) rendered in: 0.00027990341186523

